createdAt,value
2019-03-13T00:01:33.449Z,1.77
2019-03-13T00:04:00.235Z,2.25
2019-03-13T00:06:27.196Z,1.60
2019-03-13T00:08:53.981Z,1.95
2019-03-13T00:11:20.658Z,2.20
2019-03-13T00:13:47.462Z,2.77
2019-03-13T00:16:14.355Z,2.20
2019-03-13T00:18:41.121Z,2.65
2019-03-13T00:21:07.936Z,3.20
2019-03-13T00:23:34.630Z,3.52
2019-03-13T00:26:01.451Z,3.17
2019-03-13T00:28:28.243Z,3.83
2019-03-13T00:30:55.027Z,3.42
2019-03-13T00:33:21.833Z,3.58
2019-03-13T00:35:48.612Z,3.70
2019-03-13T00:38:15.311Z,3.12
2019-03-13T00:40:42.114Z,2.75
2019-03-13T00:43:08.814Z,3.67
2019-03-13T00:45:35.437Z,3.47
2019-03-13T00:48:02.240Z,2.30
2019-03-13T00:50:30.212Z,2.42
2019-03-13T00:52:57.014Z,2.70
2019-03-13T00:55:23.710Z,2.70
2019-03-13T00:57:50.516Z,2.45
2019-03-13T01:00:32.138Z,3.00
2019-03-13T01:02:58.933Z,3.33
2019-03-13T01:05:31.369Z,2.67
2019-03-13T01:07:58.066Z,3.72
2019-03-13T01:10:24.846Z,4.15
2019-03-13T01:12:51.543Z,3.50
2019-03-13T01:15:18.220Z,3.55
2019-03-13T01:17:44.912Z,3.75
2019-03-13T01:20:12.191Z,4.40
2019-03-13T01:22:38.975Z,4.55
2019-03-13T01:25:06.329Z,5.22
2019-03-13T01:27:32.901Z,4.58
2019-03-13T01:29:59.595Z,5.60
2019-03-13T01:32:45.942Z,4.50
2019-03-13T01:35:32.290Z,5.75
2019-03-13T01:37:58.991Z,4.72
2019-03-13T01:40:25.668Z,4.80
2019-03-13T01:42:52.363Z,5.30
2019-03-13T01:45:19.160Z,3.27
2019-03-13T01:47:45.950Z,5.17
2019-03-13T01:50:13.171Z,4.12
2019-03-13T01:52:39.965Z,5.28
2019-03-13T01:55:06.976Z,4.47
2019-03-13T01:57:33.759Z,4.97
2019-03-13T02:00:00.593Z,5.37
2019-03-13T02:02:27.279Z,3.85
2019-03-13T02:04:53.971Z,4.47
2019-03-13T02:07:21.633Z,5.50
2019-03-13T02:09:50.850Z,4.67
2019-03-13T02:12:21.900Z,4.30
2019-03-13T02:14:51.765Z,5.67
2019-03-13T02:17:20.613Z,6.03
2019-03-13T02:19:49.787Z,4.78
2019-03-13T02:22:19.699Z,5.22
2019-03-13T02:24:47.499Z,3.70
2019-03-13T02:27:14.913Z,5.05
2019-03-13T02:29:41.484Z,6.25
2019-03-13T02:32:08.328Z,5.53
2019-03-13T02:34:35.132Z,4.92
2019-03-13T02:37:01.843Z,4.83
2019-03-13T02:39:28.449Z,5.72
2019-03-13T02:41:55.096Z,6.55
2019-03-13T02:44:21.899Z,5.58
2019-03-13T02:46:48.673Z,5.03
2019-03-13T02:49:15.273Z,6.47
2019-03-13T02:51:41.869Z,4.92
2019-03-13T02:54:08.658Z,7.50
2019-03-13T02:56:35.367Z,6.37
2019-03-13T02:59:02.171Z,6.62
2019-03-13T03:01:35.145Z,7.60
2019-03-13T03:04:03.779Z,6.40
2019-03-13T03:06:30.695Z,7.67
2019-03-13T03:08:57.367Z,7.75
2019-03-13T03:11:24.077Z,6.47
2019-03-13T03:13:51.068Z,7.28
2019-03-13T03:16:17.875Z,6.55
2019-03-13T03:18:45.911Z,6.08
2019-03-13T03:21:12.720Z,6.83
2019-03-13T03:23:39.490Z,5.42
2019-03-13T03:26:06.292Z,7.35
2019-03-13T03:28:33.093Z,5.80
2019-03-13T03:30:59.774Z,7.28
2019-03-13T03:33:26.461Z,5.35
2019-03-13T03:35:53.165Z,7.92
2019-03-13T03:38:19.943Z,6.80
2019-03-13T03:40:46.771Z,5.67
2019-03-13T03:43:13.453Z,7.05
2019-03-13T03:45:40.146Z,6.47
2019-03-13T03:48:06.915Z,4.40
2019-03-13T03:50:33.703Z,6.17
2019-03-13T03:53:00.402Z,4.92
2019-03-13T03:55:26.997Z,3.83
2019-03-13T03:57:53.683Z,4.70
2019-03-13T04:00:20.498Z,4.80
2019-03-13T04:02:47.457Z,5.15
2019-03-13T04:05:14.265Z,4.28
2019-03-13T04:07:41.078Z,4.10
2019-03-13T04:10:08.193Z,3.80
2019-03-13T04:12:34.877Z,4.92
2019-03-13T04:15:01.800Z,4.25
2019-03-13T04:17:28.369Z,3.55
2019-03-13T04:19:55.141Z,3.33
2019-03-13T04:22:21.937Z,3.72
2019-03-13T04:24:49.012Z,3.70
2019-03-13T04:27:15.805Z,3.52
2019-03-13T04:29:42.588Z,2.42
2019-03-13T04:32:09.386Z,2.45
2019-03-13T04:34:35.985Z,2.12
2019-03-13T04:37:02.789Z,2.85
2019-03-13T04:39:29.464Z,2.85
2019-03-13T04:41:56.207Z,2.60
2019-03-13T04:44:22.890Z,2.98
2019-03-13T04:46:49.700Z,2.72
2019-03-13T04:49:16.467Z,2.77
2019-03-13T04:51:43.224Z,1.95
2019-03-13T04:54:09.925Z,2.92
2019-03-13T04:56:36.526Z,2.70
2019-03-13T04:59:03.228Z,2.30
2019-03-13T05:01:29.946Z,2.75
2019-03-13T05:03:56.528Z,3.25
2019-03-13T05:06:23.359Z,2.62
2019-03-13T05:08:57.277Z,2.67
2019-03-13T05:11:23.875Z,1.70
2019-03-13T05:13:50.549Z,2.85
2019-03-13T05:16:17.172Z,1.67
2019-03-13T05:18:43.856Z,2.12
2019-03-13T05:21:10.679Z,2.42
2019-03-13T05:23:37.287Z,4.58
2019-03-13T05:26:04.102Z,2.17
2019-03-13T05:28:31.180Z,2.90
2019-03-13T05:30:57.894Z,2.80
2019-03-13T05:33:24.605Z,2.17
2019-03-13T05:35:51.287Z,2.02
2019-03-13T05:38:17.974Z,2.90
2019-03-13T05:40:44.668Z,2.87
2019-03-13T05:43:11.844Z,2.42
2019-03-13T05:45:38.527Z,3.60
2019-03-13T05:48:05.339Z,2.22
2019-03-13T05:50:32.023Z,3.30
2019-03-13T05:52:58.725Z,2.50
2019-03-13T05:55:25.494Z,2.77
2019-03-13T05:57:52.191Z,2.77
2019-03-13T06:00:20.037Z,3.02
2019-03-13T06:02:47.986Z,3.25
2019-03-13T06:05:14.931Z,2.75
2019-03-13T06:07:41.616Z,2.37
2019-03-13T06:10:08.411Z,3.20
2019-03-13T06:12:35.057Z,3.25
2019-03-13T06:15:03.636Z,4.00
2019-03-13T06:17:30.400Z,3.05
2019-03-13T06:19:57.064Z,3.37
2019-03-13T06:22:23.761Z,4.00
2019-03-13T06:24:50.330Z,2.75
2019-03-13T06:27:16.911Z,3.12
2019-03-13T06:29:43.495Z,3.05
2019-03-13T06:32:10.165Z,3.33
2019-03-13T06:34:36.870Z,3.10
2019-03-13T06:37:03.584Z,2.12
2019-03-13T06:39:32.023Z,2.95
2019-03-13T06:41:58.773Z,3.77
2019-03-13T06:44:25.515Z,3.70
2019-03-13T06:46:52.297Z,2.90
2019-03-13T06:49:18.982Z,3.90
2019-03-13T06:51:45.679Z,2.40
2019-03-13T06:54:12.447Z,3.45
2019-03-13T06:56:39.196Z,3.40
2019-03-13T06:59:16.427Z,2.77
2019-03-13T07:02:05.521Z,3.95
2019-03-13T07:04:57.898Z,2.87
2019-03-13T07:07:53.284Z,3.60
2019-03-13T07:10:37.825Z,3.40
2019-03-13T07:13:27.155Z,3.98
2019-03-13T07:15:59.763Z,3.42
2019-03-13T07:18:43.973Z,3.15
2019-03-13T07:21:26.018Z,3.55
2019-03-13T07:24:05.289Z,3.08
2019-03-13T07:26:38.460Z,2.58
2019-03-13T07:29:23.164Z,3.65
2019-03-13T07:32:12.570Z,2.67
2019-03-13T07:35:01.753Z,3.00
2019-03-13T07:37:50.980Z,3.67
2019-03-13T07:40:33.939Z,3.08
2019-03-13T07:43:10.540Z,2.62
2019-03-13T07:45:47.851Z,3.62
2019-03-13T07:48:32.983Z,3.98
2019-03-13T07:51:15.076Z,3.62
2019-03-13T07:53:59.689Z,2.98
2019-03-13T07:56:44.507Z,3.67
2019-03-13T07:59:26.735Z,2.22
2019-03-13T08:02:00.212Z,3.17
2019-03-13T08:04:49.600Z,3.50
2019-03-13T08:07:34.677Z,2.52
2019-03-13T08:10:12.493Z,2.05
2019-03-13T08:12:58.842Z,3.12
2019-03-13T08:15:43.603Z,2.37
2019-03-13T08:18:23.603Z,2.75
2019-03-13T08:21:09.155Z,3.33
2019-03-13T08:23:58.348Z,2.75
2019-03-13T08:26:34.800Z,3.15
2019-03-13T08:29:10.069Z,2.72
2019-03-13T08:31:43.234Z,3.20
2019-03-13T08:34:41.519Z,3.67
2019-03-13T08:37:29.659Z,4.20
2019-03-13T08:40:30.637Z,1.65
2019-03-13T08:43:15.934Z,2.20
2019-03-13T08:46:05.414Z,3.05
2019-03-13T08:48:54.211Z,2.67
2019-03-13T08:51:39.189Z,2.67
2019-03-13T08:54:23.755Z,2.92
2019-03-13T08:56:56.410Z,2.42
2019-03-13T08:59:37.723Z,2.45
2019-03-13T09:02:09.767Z,3.27
2019-03-13T09:04:59.169Z,2.70
2019-03-13T09:07:40.218Z,1.87
2019-03-13T09:10:26.026Z,2.27
2019-03-13T09:13:05.549Z,2.10
2019-03-13T09:15:51.987Z,2.17
2019-03-13T09:18:39.331Z,2.10
2019-03-13T09:21:20.928Z,2.15
2019-03-13T09:24:05.779Z,2.00
2019-03-13T09:26:50.006Z,3.17
2019-03-13T09:29:25.689Z,2.77
2019-03-13T09:32:06.030Z,2.50
2019-03-13T09:34:54.827Z,2.40
2019-03-13T09:37:37.580Z,2.40
2019-03-13T09:40:14.021Z,2.67
2019-03-13T09:43:01.778Z,1.25
2019-03-13T09:46:06.312Z,2.25
2019-03-13T09:48:52.751Z,2.20
2019-03-13T09:51:29.926Z,2.75
2019-03-13T09:54:13.595Z,2.92
2019-03-13T09:57:02.356Z,2.20
2019-03-13T09:59:44.417Z,2.02
2019-03-13T10:02:20.045Z,2.40
2019-03-13T10:05:06.298Z,2.25
2019-03-13T10:07:47.660Z,1.40
2019-03-13T10:10:32.423Z,1.57
2019-03-13T10:13:07.318Z,2.95
2019-03-13T10:15:40.556Z,1.62
2019-03-13T10:18:19.026Z,2.17
2019-03-13T10:21:11.549Z,2.45
2019-03-13T10:23:45.492Z,2.25
2019-03-13T10:26:27.308Z,2.02
2019-03-13T10:29:13.769Z,2.62
2019-03-13T10:31:51.905Z,2.80
2019-03-13T10:34:26.048Z,2.23
2019-03-13T10:37:01.970Z,2.47
2019-03-13T10:39:42.867Z,1.17
2019-03-13T10:42:22.896Z,2.12
2019-03-13T10:45:13.382Z,1.62
2019-03-13T10:47:45.262Z,2.17
2019-03-13T10:50:33.691Z,1.52
2019-03-13T10:53:29.176Z,1.22
2019-03-13T10:56:14.016Z,1.40
2019-03-13T10:58:51.683Z,1.35
2019-03-13T11:01:24.097Z,1.32
2019-03-13T11:03:58.905Z,1.42
2019-03-13T11:06:54.808Z,2.40
2019-03-13T11:09:34.963Z,1.20
2019-03-13T11:12:39.513Z,1.52
2019-03-13T11:15:25.555Z,1.02
2019-03-13T11:18:03.818Z,0.90
2019-03-13T11:20:48.684Z,1.22
2019-03-13T11:23:33.743Z,2.27
2019-03-13T11:26:18.606Z,1.00
2019-03-13T11:29:20.079Z,1.40
2019-03-13T11:32:04.451Z,1.37
2019-03-13T11:34:56.820Z,1.25
2019-03-13T11:37:34.719Z,1.82
2019-03-13T11:40:23.780Z,1.57
2019-03-13T11:42:58.988Z,1.30
2019-03-13T11:45:39.564Z,1.35
2019-03-13T11:48:24.247Z,1.10
2019-03-13T11:51:13.481Z,1.12
2019-03-13T11:54:02.529Z,1.02
2019-03-13T11:56:54.906Z,1.02
2019-03-13T11:59:39.888Z,1.40
2019-03-13T12:02:29.329Z,0.80
2019-03-13T12:05:30.560Z,1.12
2019-03-13T12:08:28.754Z,1.20
2019-03-13T12:11:07.717Z,1.37
2019-03-13T12:13:48.356Z,2.00
2019-03-13T12:16:40.486Z,1.20
2019-03-13T12:19:26.910Z,1.12
2019-03-13T12:22:15.173Z,1.10
2019-03-13T12:25:00.393Z,1.25
2019-03-13T12:27:45.179Z,1.10
2019-03-13T12:30:19.906Z,1.00
2019-03-13T12:33:05.066Z,1.17
2019-03-13T12:35:40.365Z,1.25
2019-03-13T12:38:33.017Z,1.10
2019-03-13T12:41:28.142Z,1.32
2019-03-13T12:44:14.548Z,1.17
2019-03-13T12:47:00.883Z,1.52
2019-03-13T12:49:47.183Z,0.88
2019-03-13T12:52:32.100Z,1.37
2019-03-13T12:55:24.183Z,0.98
2019-03-13T12:58:14.687Z,1.35
2019-03-13T13:00:48.600Z,1.40
2019-03-13T13:03:37.663Z,1.20
2019-03-13T13:06:11.999Z,1.50
2019-03-13T13:08:54.487Z,1.90
2019-03-13T13:11:32.251Z,1.17
2019-03-13T13:14:18.657Z,1.37
2019-03-13T13:16:57.749Z,2.50
2019-03-13T13:19:24.420Z,1.87
2019-03-13T13:21:51.307Z,1.40
2019-03-13T13:24:18.107Z,1.75
2019-03-13T13:26:44.887Z,1.85
2019-03-13T13:29:11.695Z,1.60
2019-03-13T13:31:38.485Z,1.65
2019-03-13T13:34:05.299Z,1.27
2019-03-13T13:36:32.085Z,1.40
2019-03-13T13:38:58.781Z,1.75
2019-03-13T13:41:25.601Z,1.35
2019-03-13T13:43:52.419Z,2.47
2019-03-13T13:46:30.055Z,1.85
2019-03-13T13:48:56.742Z,2.12
2019-03-13T13:51:23.517Z,2.05
2019-03-13T13:53:50.214Z,1.95
2019-03-13T13:56:16.971Z,2.27
2019-03-13T13:58:43.761Z,2.42
2019-03-13T14:01:10.548Z,1.87
2019-03-13T14:03:37.230Z,1.98
2019-03-13T14:06:04.005Z,1.90
2019-03-13T14:08:30.680Z,1.60
2019-03-13T14:10:57.316Z,2.10
2019-03-13T14:13:24.001Z,1.12
2019-03-13T14:15:50.574Z,2.02
2019-03-13T14:18:17.369Z,1.40
2019-03-13T14:20:44.140Z,1.72
2019-03-13T14:23:10.851Z,1.60
2019-03-13T14:25:37.626Z,1.40
2019-03-13T14:28:04.422Z,1.85
2019-03-13T14:30:31.135Z,1.77
2019-03-13T14:32:57.923Z,1.57
2019-03-13T14:35:24.588Z,1.77
2019-03-13T14:37:52.118Z,1.40
2019-03-13T14:40:18.959Z,1.82
2019-03-13T14:42:45.747Z,1.60
2019-03-13T14:45:12.747Z,1.75
2019-03-13T14:47:39.568Z,2.05
2019-03-13T14:50:07.702Z,1.75
2019-03-13T14:52:34.301Z,1.82
2019-03-13T14:55:01.106Z,1.85
2019-03-13T14:57:27.775Z,1.32
2019-03-13T14:59:54.479Z,1.35
2019-03-13T15:02:21.274Z,1.20
2019-03-13T15:04:47.984Z,1.30
2019-03-13T15:07:14.652Z,1.22
2019-03-13T15:09:41.387Z,1.35
2019-03-13T15:12:08.151Z,1.20
2019-03-13T15:14:36.139Z,0.80
2019-03-13T15:17:02.828Z,1.27
2019-03-13T15:19:29.430Z,1.20
2019-03-13T15:21:56.446Z,1.35
2019-03-13T15:24:23.247Z,1.30
2019-03-13T15:26:50.255Z,1.80
2019-03-13T15:29:16.872Z,0.82
2019-03-13T15:31:43.521Z,0.95
2019-03-13T15:34:10.086Z,1.42
2019-03-13T15:36:36.690Z,1.47
2019-03-13T15:39:05.276Z,1.50
2019-03-13T15:41:31.989Z,1.70
2019-03-13T15:43:58.688Z,1.90
2019-03-13T15:46:25.313Z,1.50
2019-03-13T15:48:52.106Z,2.00
2019-03-13T15:51:18.710Z,2.08
2019-03-13T15:53:45.310Z,1.75
2019-03-13T15:56:12.150Z,1.70
2019-03-13T15:58:38.858Z,1.32
2019-03-13T16:01:06.149Z,1.45
2019-03-13T16:03:32.948Z,1.52
2019-03-13T16:05:59.641Z,1.67
2019-03-13T16:08:26.443Z,1.77
2019-03-13T16:10:53.139Z,2.02
2019-03-13T16:13:19.832Z,1.70
2019-03-13T16:15:46.676Z,1.32
2019-03-13T16:18:13.503Z,2.35
2019-03-13T16:20:40.178Z,2.50
2019-03-13T16:23:06.950Z,2.22
2019-03-13T16:25:33.744Z,2.02
2019-03-13T16:28:00.647Z,3.00
2019-03-13T16:30:29.787Z,3.08
2019-03-13T16:32:56.555Z,2.42
2019-03-13T16:35:26.315Z,3.90
2019-03-13T16:37:52.022Z,3.02
2019-03-13T16:40:18.867Z,3.72
2019-03-13T16:42:45.873Z,4.78
2019-03-13T16:45:13.141Z,4.95
2019-03-13T16:47:40.009Z,8.68
2019-03-13T16:50:09.075Z,5.08
2019-03-13T16:52:35.748Z,6.67
2019-03-13T16:55:02.740Z,5.42
2019-03-13T16:57:29.530Z,5.80
2019-03-13T17:00:00.880Z,5.22
2019-03-13T17:02:25.123Z,5.17
2019-03-13T17:04:51.726Z,6.87
2019-03-13T17:07:18.401Z,4.85
2019-03-13T17:09:45.206Z,6.20
2019-03-13T17:12:11.904Z,5.42
2019-03-13T17:14:38.701Z,5.65
2019-03-13T17:17:06.562Z,6.60
2019-03-13T17:19:33.349Z,7.58
2019-03-13T17:22:00.171Z,5.55
2019-03-13T17:24:26.963Z,8.13
2019-03-13T17:26:53.759Z,8.43
2019-03-13T17:29:20.573Z,8.60
2019-03-13T17:31:47.199Z,10.15
2019-03-13T17:34:13.980Z,6.30
2019-03-13T17:36:40.681Z,6.28
2019-03-13T17:39:07.476Z,7.67
2019-03-13T17:41:34.302Z,7.58
2019-03-13T17:44:01.083Z,10.82
2019-03-13T17:46:27.923Z,7.87
2019-03-13T17:48:54.564Z,10.08
2019-03-13T17:51:21.379Z,10.20
2019-03-13T17:53:48.056Z,12.73
2019-03-13T17:56:14.879Z,9.83
2019-03-13T17:58:41.602Z,9.28
2019-03-13T18:01:08.809Z,12.47
2019-03-13T18:03:55.231Z,10.68
2019-03-13T18:06:22.089Z,11.08
2019-03-13T18:08:48.774Z,9.15
2019-03-13T18:11:15.598Z,6.80
2019-03-13T18:13:42.375Z,8.03
2019-03-13T18:16:09.246Z,7.60
2019-03-13T18:18:36.069Z,8.23
2019-03-13T18:21:02.859Z,7.80
2019-03-13T18:23:29.541Z,7.90
2019-03-13T18:25:56.251Z,8.78
2019-03-13T18:28:22.934Z,9.40
2019-03-13T18:30:49.735Z,8.68
2019-03-13T18:33:16.501Z,9.60
2019-03-13T18:35:43.286Z,8.78
2019-03-13T18:38:10.065Z,9.30
2019-03-13T18:40:36.900Z,7.87
2019-03-13T18:43:03.984Z,9.18
2019-03-13T18:45:32.782Z,7.17
2019-03-13T18:47:59.580Z,8.30
2019-03-13T18:50:27.740Z,7.53
2019-03-13T18:52:54.473Z,9.13
2019-03-13T18:55:21.509Z,9.68
2019-03-13T18:57:50.740Z,8.95
2019-03-13T19:00:19.511Z,10.48
2019-03-13T19:02:46.311Z,10.35
2019-03-13T19:05:13.195Z,11.88
2019-03-13T19:07:40.006Z,10.10
2019-03-13T19:10:07.600Z,12.45
2019-03-13T19:12:34.381Z,10.32
2019-03-13T19:15:01.250Z,8.35
2019-03-13T19:17:28.059Z,8.75
2019-03-13T19:19:54.926Z,7.30
2019-03-13T19:22:21.741Z,8.28
2019-03-13T19:24:48.613Z,8.68
2019-03-13T19:27:15.290Z,8.35
2019-03-13T19:29:42.133Z,7.55
2019-03-13T19:32:08.973Z,8.70
2019-03-13T19:34:35.655Z,8.50
2019-03-13T19:37:02.512Z,8.40
2019-03-13T19:39:32.162Z,9.73
2019-03-13T19:41:58.978Z,9.07
2019-03-13T19:44:25.775Z,8.18
2019-03-13T19:46:52.381Z,8.80
2019-03-13T19:49:19.157Z,9.40
2019-03-13T19:51:45.865Z,6.08
2019-03-13T19:54:12.676Z,8.28
2019-03-13T19:56:39.411Z,8.23
2019-03-13T19:59:06.230Z,8.00
2019-03-13T20:01:32.954Z,9.08
2019-03-13T20:04:01.256Z,8.28
2019-03-13T20:06:28.044Z,10.28
2019-03-13T20:08:54.855Z,9.70
2019-03-13T20:11:21.695Z,8.83
2019-03-13T20:13:48.530Z,9.45
2019-03-13T20:16:15.209Z,9.03
2019-03-13T20:18:41.908Z,10.98
2019-03-13T20:21:08.720Z,8.90
2019-03-13T20:23:35.517Z,7.97
2019-03-13T20:26:02.337Z,6.92
2019-03-13T20:28:29.122Z,8.48
2019-03-13T20:30:55.928Z,8.13
2019-03-13T20:33:22.732Z,9.98
2019-03-13T20:35:49.509Z,8.35
2019-03-13T20:38:16.319Z,6.80
2019-03-13T20:40:43.082Z,8.13
2019-03-13T20:43:09.909Z,7.08
2019-03-13T20:45:36.692Z,5.40
2019-03-13T20:48:03.512Z,6.67
2019-03-13T20:50:37.260Z,7.45
2019-03-13T20:53:02.376Z,8.45
2019-03-13T20:55:29.068Z,6.53
2019-03-13T20:57:55.883Z,6.60
2019-03-13T21:00:22.906Z,6.62
2019-03-13T21:02:49.719Z,5.47
2019-03-13T21:05:16.492Z,6.33
2019-03-13T21:07:43.278Z,6.03
2019-03-13T21:10:10.307Z,5.83
2019-03-13T21:12:37.092Z,5.08
2019-03-13T21:15:04.096Z,4.37
2019-03-13T21:17:30.896Z,4.78
2019-03-13T21:19:57.473Z,4.12
2019-03-13T21:22:24.440Z,4.28
2019-03-13T21:24:51.265Z,3.33
2019-03-13T21:27:17.934Z,5.15
2019-03-13T21:29:44.733Z,4.55
2019-03-13T21:32:11.422Z,4.70
2019-03-13T21:34:38.142Z,4.53
2019-03-13T21:37:04.936Z,4.83
2019-03-13T21:39:31.635Z,3.22
2019-03-13T21:41:58.248Z,4.50
2019-03-13T21:44:24.930Z,3.40
2019-03-13T21:46:51.637Z,4.00
2019-03-13T21:49:18.427Z,4.33
2019-03-13T21:51:44.997Z,3.83
2019-03-13T21:54:11.695Z,3.60
2019-03-13T21:56:38.462Z,4.50
2019-03-13T21:59:05.256Z,3.25
2019-03-13T22:01:32.037Z,4.35
2019-03-13T22:03:58.743Z,2.90
2019-03-13T22:06:29.096Z,3.75
2019-03-13T22:08:54.202Z,3.75
2019-03-13T22:11:20.776Z,4.92
2019-03-13T22:13:47.571Z,4.15
2019-03-13T22:16:14.271Z,4.92
2019-03-13T22:18:40.997Z,4.00
2019-03-13T22:21:07.632Z,3.47
2019-03-13T22:23:34.336Z,5.25
2019-03-13T22:26:01.168Z,4.65
2019-03-13T22:28:27.852Z,3.95
2019-03-13T22:30:54.626Z,4.85
2019-03-13T22:33:21.338Z,5.37
2019-03-13T22:35:48.221Z,3.87
2019-03-13T22:38:14.921Z,4.33
2019-03-13T22:40:41.693Z,3.60
2019-03-13T22:43:08.424Z,4.62
2019-03-13T22:45:35.104Z,4.70
2019-03-13T22:48:01.956Z,4.35
2019-03-13T22:50:28.640Z,4.30
2019-03-13T22:52:55.424Z,4.55
2019-03-13T22:55:22.489Z,4.65
2019-03-13T22:57:49.195Z,4.20
2019-03-13T23:00:26.798Z,3.12
2019-03-13T23:02:53.800Z,4.53
2019-03-13T23:05:20.661Z,4.10
2019-03-13T23:07:47.699Z,4.03
2019-03-13T23:10:24.624Z,3.90
2019-03-13T23:12:51.475Z,3.75
2019-03-13T23:15:18.219Z,4.25
2019-03-13T23:17:44.987Z,5.40
2019-03-13T23:20:11.787Z,4.40
2019-03-13T23:22:38.486Z,5.28
2019-03-13T23:25:05.283Z,3.92
2019-03-13T23:27:32.051Z,5.17
2019-03-13T23:29:58.744Z,4.72
2019-03-13T23:32:25.330Z,4.47
2019-03-13T23:34:52.129Z,6.72
2019-03-13T23:37:18.798Z,5.70
2019-03-13T23:39:45.487Z,5.28
2019-03-13T23:42:12.287Z,5.35
2019-03-13T23:44:39.079Z,4.70
2019-03-13T23:47:05.749Z,5.55
2019-03-13T23:49:32.542Z,4.87
2019-03-13T23:51:59.111Z,3.70
2019-03-13T23:54:25.705Z,4.90
2019-03-13T23:56:52.396Z,5.10
2019-03-13T23:59:19.187Z,5.17
